createdAt,value
2018-12-20T00:01:39.393Z,99.993896
2018-12-20T00:07:02.030Z,99.993896
2018-12-20T00:12:25.347Z,99.993896
2018-12-20T00:17:48.646Z,99.993896
2018-12-20T00:23:11.352Z,99.993896
2018-12-20T00:28:34.276Z,99.993896
2018-12-20T00:33:56.890Z,99.987793
2018-12-20T00:39:19.651Z,99.835205
2018-12-20T00:44:42.300Z,99.835205
2018-12-20T00:50:05.170Z,99.835205
2018-12-20T00:55:27.942Z,99.731445
2018-12-20T01:00:50.706Z,99.377441
2018-12-20T01:06:13.378Z,99.42627
2018-12-20T01:11:36.119Z,99.731445
2018-12-20T01:16:58.929Z,99.32251
2018-12-20T01:22:21.708Z,99.884033
2018-12-20T01:27:44.306Z,99.993896
2018-12-20T01:33:07.320Z,99.993896
2018-12-20T01:38:30.608Z,99.993896
2018-12-20T01:43:52.318Z,99.993896
2018-12-20T01:49:15.276Z,99.993896
2018-12-20T01:54:38.653Z,99.993896
2018-12-20T02:00:02.941Z,99.993896
2018-12-20T02:05:25.866Z,99.993896
2018-12-20T02:10:48.875Z,99.993896
2018-12-20T02:16:11.480Z,99.993896
2018-12-20T02:21:34.233Z,99.993896
2018-12-20T02:26:57.034Z,99.993896
2018-12-20T02:32:19.930Z,99.993896
2018-12-20T02:37:42.726Z,99.993896
2018-12-20T02:43:06.752Z,99.993896
2018-12-20T02:48:29.641Z,99.993896
2018-12-20T02:53:52.494Z,99.993896
2018-12-20T02:59:15.357Z,99.993896
2018-12-20T03:04:37.969Z,99.993896
2018-12-20T03:10:00.784Z,99.993896
2018-12-20T03:15:23.524Z,99.993896
2018-12-20T03:20:46.294Z,99.993896
2018-12-20T03:26:08.884Z,99.993896
2018-12-20T03:31:31.864Z,99.951172
2018-12-20T03:36:55.495Z,99.847412
2018-12-20T03:42:18.175Z,99.639893
2018-12-20T03:47:41.013Z,99.023438
2018-12-20T03:53:03.556Z,99.023438
2018-12-20T03:58:26.262Z,98.974609
2018-12-20T04:03:49.081Z,98.76709
2018-12-20T04:09:11.740Z,98.455811
2018-12-20T04:14:34.444Z,98.66333
2018-12-20T04:19:58.840Z,98.66333
2018-12-20T04:25:21.488Z,98.87085
2018-12-20T04:30:44.315Z,98.101807
2018-12-20T04:36:17.188Z,98.046875
2018-12-20T04:41:39.852Z,97.943115
2018-12-20T04:47:03.563Z,97.485352
2018-12-20T04:52:26.405Z,97.485352
2018-12-20T04:57:49.078Z,98.046875
2018-12-20T05:03:12.260Z,98.455811
2018-12-20T05:08:34.944Z,98.620605
2018-12-20T05:13:57.838Z,98.87085
2018-12-20T05:19:20.302Z,98.76709
2018-12-20T05:24:43.309Z,98.66333
2018-12-20T05:30:05.886Z,98.413086
2018-12-20T05:35:28.827Z,98.76709
2018-12-20T05:40:51.432Z,98.974609
2018-12-20T05:46:14.597Z,99.078369
2018-12-20T05:51:37.861Z,99.182129
2018-12-20T05:57:00.564Z,99.078369
2018-12-20T06:02:23.572Z,98.974609
2018-12-20T06:07:46.526Z,98.974609
2018-12-20T06:13:09.092Z,99.285889
2018-12-20T06:18:32.781Z,99.597168
2018-12-20T06:23:56.352Z,99.908447
2018-12-20T06:29:19.135Z,99.993896
2018-12-20T06:34:41.932Z,99.993896
2018-12-20T06:40:05.723Z,99.993896
2018-12-20T06:45:28.587Z,99.993896
2018-12-20T06:50:51.473Z,99.993896
2018-12-20T06:56:14.440Z,99.993896
2018-12-20T07:01:37.225Z,99.993896
2018-12-20T07:06:59.941Z,99.993896
2018-12-20T07:12:22.695Z,99.993896
2018-12-20T07:17:47.085Z,99.993896
2018-12-20T07:23:11.044Z,99.993896
2018-12-20T07:28:33.816Z,99.993896
2018-12-20T07:33:56.750Z,99.993896
2018-12-20T07:39:19.461Z,99.993896
2018-12-20T07:44:42.359Z,99.993896
2018-12-20T07:50:05.934Z,99.993896
2018-12-20T07:55:28.591Z,99.993896
2018-12-20T08:00:51.323Z,99.993896
2018-12-20T08:06:14.224Z,99.993896
2018-12-20T08:11:37.857Z,99.993896
2018-12-20T08:17:00.516Z,99.993896
2018-12-20T08:22:23.274Z,99.993896
2018-12-20T08:27:46.052Z,99.993896
2018-12-20T08:33:08.962Z,99.993896
2018-12-20T08:38:31.872Z,99.993896
2018-12-20T08:44:05.281Z,99.993896
2018-12-20T08:49:28.422Z,99.993896
2018-12-20T08:54:51.346Z,99.993896
2018-12-20T09:00:14.033Z,99.993896
2018-12-20T09:05:36.835Z,99.993896
2018-12-20T09:10:59.575Z,99.993896
2018-12-20T09:16:22.446Z,99.993896
2018-12-20T09:21:45.119Z,99.993896
2018-12-20T09:27:07.821Z,99.993896
2018-12-20T09:32:30.873Z,99.993896
2018-12-20T09:37:53.727Z,99.993896
2018-12-20T09:43:17.696Z,99.993896
2018-12-20T09:48:51.130Z,99.993896
2018-12-20T09:54:14.052Z,99.993896
2018-12-20T09:59:36.860Z,99.993896
2018-12-20T10:04:59.572Z,99.993896
2018-12-20T10:10:22.299Z,99.993896
2018-12-20T10:15:45.160Z,99.993896
2018-12-20T10:21:08.084Z,99.993896
2018-12-20T10:26:30.830Z,99.731445
2018-12-20T10:31:53.496Z,98.699951
2018-12-20T11:11:57.325Z,91.784668
2018-12-20T11:17:37.285Z,92.297363
2018-12-20T11:23:35.408Z,92.858887
2018-12-20T11:29:03.122Z,90.490723
2018-12-20T11:34:26.152Z,91.314697
2018-12-20T11:39:48.862Z,89.312744
2018-12-20T11:45:12.773Z,89.727783
2018-12-20T11:51:15.074Z,91.107178
2018-12-20T11:57:11.068Z,90.692139
2018-12-20T12:10:48.929Z,90.490723
2018-12-20T12:16:22.808Z,89.727783
2018-12-20T12:21:45.857Z,88.800049
2018-12-20T12:27:08.491Z,87.939453
2018-12-20T12:32:31.243Z,87.219238
2018-12-20T12:37:54.278Z,88.000488
2018-12-20T12:43:17.181Z,87.011719
2018-12-20T12:48:39.940Z,87.420654
2018-12-20T12:54:02.807Z,87.835693
2018-12-20T12:59:25.584Z,87.939453
2018-12-20T13:04:50.064Z,87.524414
2018-12-20T13:10:13.000Z,88.348389
2018-12-20T13:15:35.644Z,87.976074
2018-12-20T13:20:59.119Z,88.391113
2018-12-20T13:26:21.929Z,88.696289
2018-12-20T13:31:45.536Z,88.348389
2018-12-20T13:37:15.608Z,87.939453
2018-12-20T13:42:32.088Z,88.244629
2018-12-20T13:47:55.530Z,88.391113
2018-12-20T13:53:18.548Z,89.520264
2018-12-20T13:58:41.261Z,89.355469
2018-12-20T14:04:03.989Z,89.971924
2018-12-20T14:09:28.353Z,90.179443
2018-12-20T14:14:51.195Z,88.842773
2018-12-20T14:20:13.942Z,89.770508
2018-12-20T14:25:36.644Z,89.770508
2018-12-20T14:30:59.454Z,91.253662
2018-12-20T14:36:22.280Z,91.662598
2018-12-20T14:41:45.175Z,91.558838
2018-12-20T14:47:08.128Z,91.870117
2018-12-20T14:52:30.871Z,91.705322
2018-12-20T14:57:53.578Z,92.224121
2018-12-20T15:03:16.445Z,92.736816
2018-12-20T15:08:39.287Z,93.249512
2018-12-20T15:14:02.239Z,93.249512
2018-12-20T15:19:26.137Z,93.707275
2018-12-20T15:24:48.963Z,93.914795
2018-12-20T15:30:12.244Z,94.32373
2018-12-20T15:35:35.247Z,94.122314
2018-12-20T15:40:58.259Z,93.249512
2018-12-20T15:46:22.302Z,94.63501
2018-12-20T15:51:54.785Z,95.355225
2018-12-20T15:57:17.502Z,96.636963
2018-12-20T16:02:40.383Z,97.467041
2018-12-20T16:08:03.184Z,98.699951
2018-12-20T16:13:25.948Z,99.987793
2018-12-20T16:18:49.556Z,99.993896
2018-12-20T16:24:21.677Z,99.993896
2018-12-20T16:29:54.530Z,99.993896
2018-12-20T16:35:26.299Z,99.993896
2018-12-20T16:40:58.377Z,99.993896
2018-12-20T16:46:21.018Z,99.993896
2018-12-20T16:51:52.975Z,99.993896
2018-12-20T16:57:15.992Z,99.993896
2018-12-20T17:02:38.678Z,99.993896
2018-12-20T17:08:01.621Z,99.993896
2018-12-20T17:13:33.372Z,99.993896
2018-12-20T17:18:56.247Z,99.993896
2018-12-20T17:24:19.008Z,99.993896
2018-12-20T17:29:50.869Z,99.993896
2018-12-20T17:35:23.909Z,99.993896
2018-12-20T17:40:58.119Z,99.993896
2018-12-20T17:46:33.351Z,99.993896
2018-12-20T17:52:06.847Z,99.993896
2018-12-20T17:57:40.565Z,99.993896
2018-12-20T18:03:13.101Z,99.993896
2018-12-20T18:08:35.857Z,99.993896
2018-12-20T18:13:58.607Z,99.993896
2018-12-20T18:19:21.556Z,99.993896
2018-12-20T18:24:45.520Z,99.993896
2018-12-20T18:30:08.225Z,99.993896
2018-12-20T18:35:34.247Z,99.993896
2018-12-20T18:40:58.005Z,99.993896
2018-12-20T18:46:20.749Z,99.993896
2018-12-20T18:52:11.382Z,99.993896
2018-12-20T18:57:44.657Z,99.993896
2018-12-20T19:03:07.735Z,99.993896
2018-12-20T19:08:30.488Z,99.993896
2018-12-20T19:13:53.282Z,99.993896
2018-12-20T19:19:17.090Z,99.993896
2018-12-20T19:24:40.089Z,99.993896
2018-12-20T19:30:02.800Z,99.993896
2018-12-20T19:35:36.837Z,99.993896
2018-12-20T19:41:09.490Z,99.993896
2018-12-20T19:46:42.706Z,99.993896
2018-12-20T19:52:15.543Z,99.993896
2018-12-20T19:57:38.377Z,99.993896
2018-12-20T20:03:01.463Z,99.993896
2018-12-20T20:08:24.336Z,99.993896
2018-12-20T20:13:47.135Z,99.993896
2018-12-20T20:19:09.868Z,99.993896
2018-12-20T20:24:32.795Z,99.993896
2018-12-20T20:29:55.505Z,99.993896
2018-12-20T20:35:20.176Z,99.993896
2018-12-20T20:40:42.936Z,99.993896
2018-12-20T20:46:05.662Z,99.993896
2018-12-20T20:51:28.408Z,99.993896
2018-12-20T20:56:52.935Z,99.993896
2018-12-20T21:02:16.592Z,99.993896
2018-12-20T21:07:39.275Z,99.993896
2018-12-20T21:13:01.996Z,99.993896
2018-12-20T21:18:24.781Z,99.993896
2018-12-20T21:23:47.571Z,99.993896
2018-12-20T21:29:10.448Z,99.993896
2018-12-20T21:34:33.243Z,99.993896
2018-12-20T21:39:55.963Z,99.993896
2018-12-20T21:45:18.955Z,99.993896
2018-12-20T21:50:41.776Z,99.993896
2018-12-20T21:56:04.451Z,99.993896
2018-12-20T22:01:27.303Z,99.993896
2018-12-20T22:06:51.113Z,99.993896
2018-12-20T22:12:13.949Z,99.993896
2018-12-20T22:17:36.688Z,99.79248
2018-12-20T22:22:59.343Z,99.584961
2018-12-20T22:28:22.062Z,99.688721
2018-12-20T22:33:44.724Z,99.273682
2018-12-20T22:39:07.380Z,98.919678
2018-12-20T22:44:30.083Z,99.169922
2018-12-20T22:49:53.816Z,99.169922
2018-12-20T22:55:17.802Z,99.481201
2018-12-20T23:00:40.445Z,98.864746
2018-12-20T23:06:03.105Z,98.199463
2018-12-20T23:11:26.925Z,97.888184
2018-12-20T23:16:53.599Z,98.095703
2018-12-20T23:22:13.117Z,97.888184
2018-12-20T23:27:35.836Z,97.479248
2018-12-20T23:32:59.009Z,97.680664
2018-12-20T23:38:21.687Z,98.449707
2018-12-20T23:43:44.491Z,98.034668
2018-12-20T23:49:07.147Z,99.066162
2018-12-20T23:54:29.833Z,99.11499
2018-12-20T23:59:53.463Z,99.993896
